createdAt,value
2022-11-08T00:00:45.488Z,31.13
2022-11-08T00:03:13.023Z,29.23
2022-11-08T00:05:59.409Z,37.10
2022-11-08T00:08:45.737Z,31.50
2022-11-08T00:11:31.874Z,32.07
2022-11-08T00:14:00.067Z,28.90
2022-11-08T00:16:28.752Z,33.23
2022-11-08T00:18:56.108Z,31.40
2022-11-08T00:21:23.431Z,29.17
2022-11-08T00:23:50.692Z,35.50
2022-11-08T00:26:18.573Z,32.27
2022-11-08T00:28:45.910Z,31.33
2022-11-08T00:31:13.251Z,32.63
2022-11-08T00:33:40.610Z,29.43
2022-11-08T00:36:08.053Z,30.40
2022-11-08T00:38:35.316Z,32.07
2022-11-08T00:41:02.627Z,25.77
2022-11-08T00:43:29.891Z,37.27
2022-11-08T00:45:57.311Z,36.07
2022-11-08T00:48:24.606Z,40.30
2022-11-08T00:50:52.146Z,34.23
2022-11-08T00:53:19.400Z,34.53
2022-11-08T00:55:46.943Z,33.37
2022-11-08T00:58:14.323Z,29.93
2022-11-08T01:00:41.751Z,33.57
2022-11-08T01:03:21.282Z,28.97
2022-11-08T01:05:50.644Z,30.43
2022-11-08T01:08:18.946Z,30.67
2022-11-08T01:10:52.499Z,36.67
2022-11-08T01:13:20.038Z,36.17
2022-11-08T01:15:47.786Z,46.10
2022-11-08T01:18:17.381Z,32.30
2022-11-08T01:20:46.707Z,32.47
2022-11-08T01:23:14.730Z,26.47
2022-11-08T01:25:45.531Z,25.93
2022-11-08T01:28:13.647Z,28.17
2022-11-08T01:30:43.317Z,32.93
2022-11-08T01:33:11.287Z,43.23
2022-11-08T01:35:39.076Z,33.93
2022-11-08T01:38:07.018Z,30.87
2022-11-08T01:40:34.389Z,28.77
2022-11-08T01:43:27.016Z,26.10
2022-11-08T01:46:18.465Z,28.07
2022-11-08T01:49:16.605Z,36.97
2022-11-08T01:51:54.104Z,25.97
2022-11-08T01:54:46.538Z,27.37
2022-11-08T01:57:18.225Z,22.00
2022-11-08T01:59:47.718Z,21.33
2022-11-08T02:02:16.034Z,26.63
2022-11-08T02:04:44.130Z,27.07
2022-11-08T02:07:13.696Z,25.90
2022-11-08T02:09:43.728Z,23.60
2022-11-08T02:12:12.606Z,27.53
2022-11-08T02:14:40.216Z,23.60
2022-11-08T02:17:08.308Z,22.13
2022-11-08T02:19:53.912Z,22.67
2022-11-08T02:22:33.682Z,20.70
2022-11-08T02:25:01.365Z,20.70
2022-11-08T02:27:28.721Z,22.57
2022-11-08T02:29:56.635Z,21.63
2022-11-08T02:32:25.085Z,18.27
2022-11-08T02:34:59.010Z,20.67
2022-11-08T02:37:27.039Z,21.27
2022-11-08T02:39:54.618Z,23.30
2022-11-08T02:42:22.052Z,20.57
2022-11-08T02:44:49.937Z,22.17
2022-11-08T02:47:17.643Z,21.63
2022-11-08T02:49:45.023Z,26.80
2022-11-08T02:52:12.556Z,21.30
2022-11-08T02:54:40.041Z,20.23
2022-11-08T02:57:07.398Z,25.03
2022-11-08T02:59:34.755Z,22.90
2022-11-08T03:02:02.403Z,22.50
2022-11-08T03:04:29.738Z,31.97
2022-11-08T03:06:56.991Z,25.47
2022-11-08T03:09:24.398Z,26.03
2022-11-08T03:11:51.639Z,27.43
2022-11-08T03:14:19.011Z,28.23
2022-11-08T03:16:46.287Z,27.17
2022-11-08T03:19:14.047Z,28.63
2022-11-08T03:21:41.330Z,29.53
2022-11-08T03:24:09.151Z,20.83
2022-11-08T03:26:36.429Z,21.83
2022-11-08T03:29:03.769Z,21.80
2022-11-08T03:31:31.025Z,25.53
2022-11-08T03:33:58.289Z,21.53
2022-11-08T03:36:25.943Z,22.67
2022-11-08T03:38:53.414Z,20.53
2022-11-08T03:41:20.652Z,19.50
2022-11-08T03:43:50.555Z,19.50
2022-11-08T03:46:18.448Z,21.57
2022-11-08T03:48:45.782Z,21.63
2022-11-08T03:51:13.366Z,28.50
2022-11-08T03:53:40.629Z,24.37
2022-11-08T03:56:08.376Z,26.73
2022-11-08T03:58:36.336Z,26.53
2022-11-08T04:01:06.064Z,27.50
2022-11-08T04:03:33.615Z,27.77
2022-11-08T04:06:04.149Z,26.77
2022-11-08T04:08:31.602Z,23.70
2022-11-08T04:11:19.854Z,28.60
2022-11-08T04:14:05.531Z,29.27
2022-11-08T04:16:33.742Z,22.40
2022-11-08T04:19:19.809Z,24.20
2022-11-08T04:21:52.991Z,30.60
2022-11-08T04:24:21.580Z,25.17
2022-11-08T04:26:49.095Z,21.57
2022-11-08T04:29:17.185Z,23.87
2022-11-08T04:31:45.852Z,28.90
2022-11-08T04:34:14.737Z,28.30
2022-11-08T04:36:42.314Z,30.53
2022-11-08T04:39:09.657Z,32.17
2022-11-08T04:41:36.947Z,28.50
2022-11-08T04:44:04.316Z,29.10
2022-11-08T04:46:31.643Z,25.50
2022-11-08T04:49:00.912Z,26.60
2022-11-08T04:51:32.311Z,24.93
2022-11-08T04:54:02.446Z,29.13
2022-11-08T04:56:31.131Z,30.87
2022-11-08T04:59:00.277Z,37.23
2022-11-08T05:01:30.356Z,35.87
2022-11-08T05:03:58.772Z,42.43
2022-11-08T05:06:31.580Z,45.40
2022-11-08T05:09:00.373Z,41.43
2022-11-08T05:11:29.646Z,44.87
2022-11-08T05:13:58.348Z,39.93
2022-11-08T05:16:31.124Z,40.80
2022-11-08T05:18:58.465Z,40.13
2022-11-08T05:21:44.882Z,47.90
2022-11-08T05:24:16.228Z,40.53
2022-11-08T05:26:46.233Z,40.97
2022-11-08T05:29:15.136Z,54.00
2022-11-08T05:31:43.097Z,50.73
2022-11-08T05:34:10.579Z,45.20
2022-11-08T05:36:38.145Z,40.27
2022-11-08T05:39:05.672Z,38.77
2022-11-08T05:41:33.126Z,51.90
2022-11-08T05:44:00.485Z,65.50
2022-11-08T05:46:27.869Z,63.27
2022-11-08T05:48:55.557Z,51.07
2022-11-08T05:51:22.893Z,52.67
2022-11-08T05:53:50.218Z,48.60
2022-11-08T05:56:18.406Z,46.53
2022-11-08T05:58:46.371Z,50.00
2022-11-08T06:01:16.872Z,45.50
2022-11-08T06:03:44.453Z,49.57
2022-11-08T06:06:14.256Z,54.07
2022-11-08T06:08:49.882Z,55.60
2022-11-08T06:11:23.577Z,50.17
2022-11-08T06:13:51.576Z,47.30
2022-11-08T06:16:20.563Z,49.93
2022-11-08T06:18:49.374Z,56.40
2022-11-08T06:21:19.756Z,53.23
2022-11-08T06:23:47.752Z,62.77
2022-11-08T06:26:16.454Z,61.07
2022-11-08T06:28:43.707Z,51.57
2022-11-08T06:31:11.345Z,52.73
2022-11-08T06:33:38.658Z,51.20
2022-11-08T06:36:07.543Z,56.57
2022-11-08T06:38:34.907Z,57.30
2022-11-08T06:41:03.106Z,64.70
2022-11-08T06:43:30.805Z,68.70
2022-11-08T06:46:04.418Z,57.40
2022-11-08T06:48:35.779Z,54.97
2022-11-08T06:51:04.209Z,45.93
2022-11-08T06:53:31.981Z,47.57
2022-11-08T06:56:03.130Z,50.37
2022-11-08T06:58:31.208Z,50.67
2022-11-08T07:00:58.760Z,53.43
2022-11-08T07:03:26.111Z,52.43
2022-11-08T07:05:53.330Z,47.10
2022-11-08T07:08:23.565Z,46.73
2022-11-08T07:10:51.812Z,52.23
2022-11-08T07:13:19.459Z,40.37
2022-11-08T07:15:48.895Z,47.50
2022-11-08T07:18:18.722Z,33.50
2022-11-08T07:20:46.959Z,36.87
2022-11-08T07:23:14.727Z,32.33
2022-11-08T07:25:42.209Z,36.23
2022-11-08T07:28:21.899Z,35.40
2022-11-08T07:30:50.137Z,32.97
2022-11-08T07:33:18.355Z,38.97
2022-11-08T07:35:47.621Z,39.87
2022-11-08T07:38:15.096Z,35.13
2022-11-08T07:40:42.959Z,33.13
2022-11-08T07:43:12.120Z,37.87
2022-11-08T07:45:40.655Z,37.37
2022-11-08T07:48:12.615Z,29.73
2022-11-08T07:50:43.225Z,27.20
2022-11-08T07:53:11.283Z,29.20
2022-11-08T07:55:39.763Z,28.33
2022-11-08T07:58:08.932Z,26.27
2022-11-08T08:00:38.080Z,25.30
2022-11-08T08:03:07.585Z,32.93
2022-11-08T08:05:40.574Z,23.97
2022-11-08T08:08:08.228Z,20.77
2022-11-08T08:10:36.558Z,20.87
2022-11-08T08:13:05.263Z,42.27
2022-11-08T08:15:33.209Z,22.70
2022-11-08T08:18:02.256Z,26.50
2022-11-08T08:20:31.154Z,22.20
2022-11-08T08:22:59.062Z,20.57
2022-11-08T08:25:28.317Z,19.47
2022-11-08T08:27:57.734Z,17.13
2022-11-08T08:30:26.100Z,18.83
2022-11-08T08:33:26.740Z,19.83
2022-11-08T08:35:49.947Z,39.83
2022-11-08T08:38:17.493Z,22.73
2022-11-08T08:40:44.983Z,28.47
2022-11-08T08:43:12.275Z,21.33
2022-11-08T08:45:40.862Z,59.80
2022-11-08T08:48:08.168Z,39.03
2022-11-08T08:50:35.599Z,48.53
2022-11-08T08:53:05.508Z,37.87
2022-11-08T08:55:35.924Z,19.53
2022-11-08T08:58:03.947Z,17.33
2022-11-08T09:03:19.684Z,24.60
2022-11-08T09:05:47.472Z,39.77
2022-11-08T09:08:15.411Z,20.87
2022-11-08T09:10:43.088Z,40.03
2022-11-08T09:13:10.742Z,41.30
2022-11-08T09:15:40.302Z,24.63
2022-11-08T09:18:07.809Z,21.23
2022-11-08T09:20:35.131Z,22.57
2022-11-08T09:23:03.496Z,18.83
2022-11-08T09:25:31.453Z,20.77
2022-11-08T09:27:58.726Z,19.10
2022-11-08T09:30:26.990Z,20.53
2022-11-08T09:33:02.589Z,15.13
2022-11-08T09:35:30.873Z,20.70
2022-11-08T09:37:59.074Z,10.23
2022-11-08T09:40:43.324Z,7.10
2022-11-08T09:43:57.670Z,7.30
2022-11-08T09:46:45.204Z,9.70
2022-11-08T09:49:25.703Z,16.03
2022-11-08T09:51:53.738Z,8.50
2022-11-08T09:54:26.585Z,8.48
2022-11-08T09:56:55.958Z,11.82
2022-11-08T09:59:44.008Z,8.07
2022-11-08T10:02:24.180Z,9.48
2022-11-08T10:05:02.079Z,10.88
2022-11-08T10:07:36.596Z,15.65
2022-11-08T10:10:30.569Z,11.60
2022-11-08T10:13:18.275Z,29.70
2022-11-08T10:16:27.723Z,13.95
2022-11-08T10:19:07.287Z,29.05
2022-11-08T10:21:58.749Z,21.47
2022-11-08T10:24:54.094Z,19.60
2022-11-08T10:27:38.136Z,8.63
2022-11-08T10:30:18.439Z,8.23
2022-11-08T10:32:53.858Z,6.07
2022-11-08T10:35:21.568Z,11.97
2022-11-08T10:37:52.359Z,7.00
2022-11-08T10:40:33.316Z,10.33
2022-11-08T10:43:09.611Z,7.33
2022-11-08T10:45:37.533Z,11.47
2022-11-08T10:48:05.876Z,15.37
2022-11-08T10:50:43.874Z,6.83
2022-11-08T10:53:24.086Z,5.23
2022-11-08T10:56:01.231Z,8.97
2022-11-08T10:58:36.383Z,7.50
2022-11-08T11:01:06.464Z,6.13
2022-11-08T11:03:34.214Z,5.53
2022-11-08T11:06:06.599Z,5.60
2022-11-08T11:08:34.417Z,4.97
2022-11-08T11:11:36.054Z,7.67
2022-11-08T11:14:22.613Z,5.93
2022-11-08T11:17:00.952Z,7.67
2022-11-08T11:19:30.126Z,5.40
2022-11-08T11:22:03.911Z,5.07
2022-11-08T11:24:32.263Z,5.23
2022-11-08T11:27:07.816Z,8.83
2022-11-08T11:29:37.096Z,7.83
2022-11-08T11:32:34.865Z,5.23
2022-11-08T11:35:04.601Z,11.53
2022-11-08T11:37:45.474Z,8.43
2022-11-08T11:40:22.004Z,18.97
2022-11-08T11:43:11.431Z,9.00
2022-11-08T11:45:48.406Z,6.43
2022-11-08T11:48:19.214Z,11.50
2022-11-08T11:50:49.741Z,7.50
2022-11-08T11:53:23.064Z,7.27
2022-11-08T11:56:21.792Z,8.17
2022-11-08T11:59:04.928Z,5.33
2022-11-08T12:02:00.939Z,8.13
2022-11-08T12:05:05.393Z,5.83
2022-11-08T12:07:34.376Z,5.47
2022-11-08T12:10:35.900Z,5.03
2022-11-08T12:13:21.582Z,7.40
2022-11-08T12:16:15.673Z,5.80
2022-11-08T12:19:13.924Z,4.77
2022-11-08T12:22:06.036Z,9.40
2022-11-08T12:24:50.595Z,5.97
2022-11-08T12:27:29.757Z,40.63
2022-11-08T12:30:18.242Z,24.95
2022-11-08T12:33:16.451Z,5.93
2022-11-08T12:36:13.560Z,11.13
2022-11-08T12:38:56.126Z,4.55
2022-11-08T12:41:58.547Z,7.18
2022-11-08T12:44:28.906Z,12.10
2022-11-08T12:47:08.633Z,10.15
2022-11-08T12:49:50.702Z,10.18
2022-11-08T12:52:27.174Z,5.93
2022-11-08T12:55:04.247Z,14.30
2022-11-08T12:57:32.578Z,5.43
2022-11-08T12:59:59.909Z,3.83
2022-11-08T13:02:32.452Z,4.25
2022-11-08T13:05:28.116Z,5.40
2022-11-08T13:08:17.464Z,4.47
2022-11-08T13:11:01.815Z,9.55
2022-11-08T13:13:39.032Z,4.63
2022-11-08T13:16:22.460Z,9.32
2022-11-08T13:18:58.591Z,14.45
2022-11-08T13:21:28.790Z,9.00
2022-11-08T13:24:45.846Z,8.00
2022-11-08T13:27:31.944Z,11.98
2022-11-08T13:30:04.933Z,10.25
2022-11-08T13:32:44.294Z,6.85
2022-11-08T13:35:31.074Z,10.45
2022-11-08T13:38:04.292Z,5.22
2022-11-08T13:40:46.493Z,8.68
2022-11-08T13:43:31.785Z,6.72
2022-11-08T13:46:21.059Z,6.47
2022-11-08T13:49:05.637Z,8.70
2022-11-08T13:51:40.145Z,21.75
2022-11-08T13:54:22.823Z,15.93
2022-11-08T13:56:53.018Z,10.93
2022-11-08T13:59:32.636Z,7.75
2022-11-08T14:02:00.189Z,16.10
2022-11-08T14:04:38.881Z,11.80
2022-11-08T14:07:25.380Z,34.47
2022-11-08T14:10:20.531Z,12.07
2022-11-08T14:13:15.069Z,18.20
2022-11-08T14:16:15.254Z,18.67
2022-11-08T14:18:43.003Z,13.67
2022-11-08T14:21:18.867Z,24.27
2022-11-08T14:23:50.390Z,21.50
2022-11-08T14:26:24.955Z,11.77
2022-11-08T14:28:54.195Z,7.73
2022-11-08T14:31:28.652Z,9.23
2022-11-08T14:33:56.887Z,13.40
2022-11-08T14:36:25.808Z,11.30
2022-11-08T14:39:17.580Z,12.57
2022-11-08T14:41:53.107Z,10.53
2022-11-08T14:44:21.095Z,22.20
2022-11-08T14:46:57.122Z,38.17
2022-11-08T14:49:33.342Z,44.77
2022-11-08T14:52:09.977Z,39.47
2022-11-08T14:54:49.310Z,50.23
2022-11-08T14:57:39.415Z,42.83
2022-11-08T15:00:25.080Z,43.70
2022-11-08T15:03:03.482Z,30.10
2022-11-08T15:05:42.665Z,27.77
2022-11-08T15:08:37.416Z,31.07
2022-11-08T15:11:13.194Z,27.20
2022-11-08T15:13:45.229Z,25.57
2022-11-08T15:16:14.561Z,24.77
2022-11-08T15:18:44.556Z,26.40
2022-11-08T15:21:30.156Z,24.80
2022-11-08T15:24:19.072Z,26.43
2022-11-08T15:27:05.465Z,21.33
2022-11-08T15:30:01.368Z,18.43
2022-11-08T15:32:36.379Z,16.50
2022-11-08T15:35:20.676Z,14.60
2022-11-08T15:37:51.078Z,22.47
2022-11-08T15:40:28.789Z,20.23
2022-11-08T15:43:00.550Z,27.70
2022-11-08T15:45:38.956Z,42.57
2022-11-08T15:48:09.593Z,27.60
2022-11-08T15:50:36.803Z,20.30
2022-11-08T15:53:12.019Z,23.23
2022-11-08T15:55:44.579Z,19.57
2022-11-08T15:58:25.961Z,22.63
2022-11-08T16:00:53.465Z,20.37
2022-11-08T16:03:20.752Z,59.70
2022-11-08T16:05:48.107Z,32.60
2022-11-08T16:08:20.070Z,21.67
2022-11-08T16:10:59.075Z,16.47
2022-11-08T16:13:33.396Z,20.23
2022-11-08T16:16:02.432Z,30.43
2022-11-08T16:18:34.522Z,56.73
2022-11-08T16:21:03.258Z,62.57
2022-11-08T16:23:30.709Z,35.07
2022-11-08T16:26:00.961Z,61.57
2022-11-08T16:28:38.321Z,71.43
2022-11-08T16:31:08.660Z,89.17
2022-11-08T16:33:36.482Z,60.13
2022-11-08T16:36:19.728Z,72.50
2022-11-08T16:38:58.263Z,53.43
2022-11-08T16:41:26.659Z,55.37
2022-11-08T16:43:55.252Z,60.07
2022-11-08T16:46:24.023Z,54.63
2022-11-08T16:48:59.174Z,70.47
2022-11-08T16:51:27.030Z,36.17
2022-11-08T16:53:54.905Z,45.83
2022-11-08T16:56:22.602Z,71.77
2022-11-08T16:58:50.152Z,53.53
2022-11-08T17:01:27.255Z,79.10
2022-11-08T17:03:54.776Z,75.53
2022-11-08T17:06:22.149Z,55.03
2022-11-08T17:08:49.686Z,99.70
2022-11-08T17:11:22.251Z,51.13
2022-11-08T17:13:50.625Z,58.03
2022-11-08T17:16:18.963Z,58.93
2022-11-08T17:18:52.224Z,55.90
2022-11-08T17:21:43.760Z,131.67
2022-11-08T17:24:08.302Z,105.07
2022-11-08T17:26:35.674Z,111.57
2022-11-08T17:29:02.929Z,119.20
2022-11-08T17:31:30.423Z,92.90
2022-11-08T17:33:57.653Z,77.10
2022-11-08T17:36:25.146Z,81.30
2022-11-08T17:38:52.611Z,94.33
2022-11-08T17:41:19.999Z,113.33
2022-11-08T17:43:47.546Z,97.43
2022-11-08T17:46:15.351Z,123.63
2022-11-08T17:48:42.936Z,137.53
2022-11-08T17:51:12.295Z,254.03
2022-11-08T17:53:40.184Z,257.97
2022-11-08T17:56:08.739Z,181.73
2022-11-08T17:58:38.199Z,225.40
2022-11-08T18:01:07.665Z,188.03
2022-11-08T18:03:35.895Z,225.53
2022-11-08T18:06:06.070Z,207.67
2022-11-08T18:08:34.733Z,173.93
2022-11-08T18:11:02.823Z,161.13
2022-11-08T18:13:30.542Z,133.80
2022-11-08T18:16:16.024Z,121.23
2022-11-08T18:18:44.844Z,58.63
2022-11-08T18:21:12.794Z,109.90
2022-11-08T18:23:42.182Z,75.03
2022-11-08T18:26:10.659Z,90.30
2022-11-08T18:28:39.214Z,77.53
2022-11-08T18:31:10.391Z,90.87
2022-11-08T18:33:38.776Z,87.30
2022-11-08T18:36:12.283Z,92.43
2022-11-08T18:38:41.196Z,100.40
2022-11-08T18:41:09.344Z,130.03
2022-11-08T18:43:36.752Z,97.63
2022-11-08T18:46:11.136Z,79.23
2022-11-08T18:48:38.883Z,93.23
2022-11-08T18:51:08.384Z,56.83
2022-11-08T18:53:35.647Z,49.20
2022-11-08T18:56:03.392Z,46.10
2022-11-08T18:58:31.311Z,38.73
2022-11-08T19:00:58.995Z,78.77
2022-11-08T19:03:27.631Z,38.67
2022-11-08T19:05:55.765Z,34.37
2022-11-08T19:08:26.045Z,36.00
2022-11-08T19:11:11.190Z,21.43
2022-11-08T19:13:40.199Z,24.20
2022-11-08T19:16:14.111Z,27.23
2022-11-08T19:18:42.768Z,54.53
2022-11-08T19:21:18.724Z,72.20
2022-11-08T19:23:46.735Z,97.83
2022-11-08T19:26:17.685Z,132.83
2022-11-08T19:28:46.520Z,72.07
2022-11-08T19:31:22.129Z,54.87
2022-11-08T19:33:53.087Z,56.23
2022-11-08T19:36:25.954Z,55.93
2022-11-08T19:38:55.160Z,165.77
2022-11-08T19:41:24.780Z,147.97
2022-11-08T19:43:52.403Z,107.27
2022-11-08T19:46:24.193Z,56.87
2022-11-08T19:48:52.988Z,44.67
2022-11-08T19:51:23.196Z,42.07
2022-11-08T19:53:54.228Z,42.33
2022-11-08T19:56:32.879Z,81.13
2022-11-08T19:59:10.046Z,112.37
2022-11-08T20:01:40.127Z,69.70
2022-11-08T20:04:09.997Z,87.87
2022-11-08T20:06:38.764Z,60.47
2022-11-08T20:09:06.768Z,51.43
2022-11-08T20:11:36.950Z,55.50
2022-11-08T20:14:05.661Z,95.33
2022-11-08T20:16:36.431Z,110.63
2022-11-08T20:19:08.052Z,93.13
2022-11-08T20:21:35.817Z,143.63
2022-11-08T20:24:06.101Z,88.37
2022-11-08T20:26:35.073Z,73.67
2022-11-08T20:29:02.592Z,66.10
2022-11-08T20:31:30.065Z,63.13
2022-11-08T20:33:57.354Z,48.07
2022-11-08T20:36:26.100Z,44.10
2022-11-08T20:38:59.907Z,42.23
2022-11-08T20:41:30.450Z,28.37
2022-11-08T20:43:57.692Z,29.40
2022-11-08T20:46:26.164Z,42.10
2022-11-08T20:49:00.196Z,31.47
2022-11-08T20:51:29.043Z,31.57
2022-11-08T20:53:57.585Z,30.30
2022-11-08T20:56:25.921Z,29.90
2022-11-08T20:58:53.975Z,31.53
2022-11-08T21:01:28.740Z,28.83
2022-11-08T21:03:56.655Z,29.60
2022-11-08T21:06:26.053Z,32.30
2022-11-08T21:09:09.909Z,31.53
2022-11-08T21:11:41.649Z,34.83
2022-11-08T21:14:09.070Z,35.53
2022-11-08T21:17:06.650Z,38.83
2022-11-08T21:19:26.292Z,39.10
2022-11-08T21:22:13.560Z,127.70
2022-11-08T21:24:41.526Z,79.93
2022-11-08T21:27:09.283Z,102.73
2022-11-08T21:29:38.527Z,99.50
2022-11-08T21:32:06.148Z,102.57
2022-11-08T21:34:33.368Z,146.90
2022-11-08T21:37:00.794Z,149.50
2022-11-08T21:39:28.273Z,136.57
2022-11-08T21:41:55.511Z,105.40
2022-11-08T21:44:23.143Z,97.17
2022-11-08T21:46:50.532Z,89.67
2022-11-08T21:49:17.797Z,88.73
2022-11-08T21:51:45.061Z,93.00
2022-11-08T21:54:12.355Z,122.87
2022-11-08T21:56:39.880Z,128.57
2022-11-08T21:59:07.122Z,87.30
2022-11-08T22:01:34.392Z,83.90
2022-11-08T22:04:01.936Z,100.90
2022-11-08T22:06:29.498Z,129.17
2022-11-08T22:08:56.988Z,105.63
2022-11-08T22:11:24.469Z,99.37
2022-11-08T22:13:51.739Z,106.87
2022-11-08T22:16:19.195Z,81.20
2022-11-08T22:21:38.759Z,118.20
2022-11-08T22:24:06.732Z,102.13
2022-11-08T22:26:34.330Z,115.70
2022-11-08T22:29:03.636Z,123.50
2022-11-08T22:31:31.396Z,104.83
2022-11-08T22:33:58.944Z,87.30
2022-11-08T22:36:26.438Z,80.33
2022-11-08T22:38:53.734Z,65.20
2022-11-08T22:41:22.718Z,64.63
2022-11-08T22:43:50.384Z,60.90
2022-11-08T22:46:17.874Z,47.43
2022-11-08T22:48:45.310Z,35.03
2022-11-08T22:51:13.547Z,31.77
2022-11-08T22:53:42.211Z,39.03
2022-11-08T22:56:11.703Z,33.00
2022-11-08T22:58:39.975Z,32.17
2022-11-08T23:01:08.459Z,42.60
2022-11-08T23:03:35.829Z,37.53
2022-11-08T23:06:03.337Z,43.30
2022-11-08T23:08:31.238Z,48.23
2022-11-08T23:11:20.605Z,41.00
2022-11-08T23:14:06.714Z,42.60
2022-11-08T23:16:36.318Z,46.83
2022-11-08T23:19:29.579Z,45.87
2022-11-08T23:22:15.564Z,35.47
2022-11-08T23:24:43.325Z,37.53
2022-11-08T23:27:30.720Z,38.17
2022-11-08T23:30:17.139Z,38.33
2022-11-08T23:32:47.316Z,53.93
2022-11-08T23:35:15.476Z,50.90
2022-11-08T23:37:43.278Z,43.40
2022-11-08T23:40:31.115Z,41.40
2022-11-08T23:43:24.608Z,58.60
2022-11-08T23:45:52.238Z,50.63
2022-11-08T23:48:19.891Z,51.73
2022-11-08T23:50:51.872Z,48.93
2022-11-08T23:53:21.762Z,46.40
2022-11-08T23:55:49.350Z,68.70
2022-11-08T23:58:17.288Z,90.70
